Terminal Aerodrome Forecast
Issued by NWS

Home | Current Version | Previous Version | Text Only | Print | Product List | Glossary On
Versions: 1 2 3 4 5 6 7 8 9 10 11 12 13 14 15 16 17 18 19 20 21 22 23 24 25 26 27 28 29 30 31 32 33 34 35 36 37 38 39 40
000
FTUS45 KBOU 050311 AAB
TAFBJC
TAF AMD
KBJC 050311Z 0503/0524 VRB05KT P6SM FEW090 SCT200
     FM050600 27015G25KT P6SM SCT090 BKN200
     FM051300 27014KT P6SM SCT080 BKN160
     FM051700 32014G24KT P6SM SCT070 BKN140
     FM052100 34014G24KT P6SM SCT070 BKN110=

USA.gov is the U.S. government's official web portal to all federal, state and local government web resources and services.